Time;durP1;ratioP1;P1;durP2;ratioP2;P2;SDS_P1;SDS_P2;PMS_P1;PMS_P2;Temp;Humidity;BMP_temperature;BMP_pressure;BME280_temperature;BME280_humidity;BME280_pressure;Samples;Min_cycle;Max_cycle;Signal;HPM_P1;HPM_P2
2021/10/24 00:01:44;;;;;;;62.63;16.70;;;;;;;;;;5044594;28;20467;-81
2021/10/24 00:04:11;;;;;;;57.10;13.60;;;;;;;;;;5055582;28;20451;-80
2021/10/24 00:06:39;;;;;;;60.73;16.10;;;;;;;;;;5062601;28;21247;-82
2021/10/24 00:09:07;;;;;;;56.57;12.70;;;;;;;;;;5054153;28;20457;-81
2021/10/24 00:11:37;;;;;;;57.37;12.40;;;;;;;;;;5046071;28;20463;-81
2021/10/24 00:14:06;;;;;;;56.33;11.30;;;;;;;;;;5057729;28;20471;-80
2021/10/24 00:16:34;;;;;;;56.63;13.90;;;;;;;;;;5057625;28;20463;-81
2021/10/24 00:19:01;;;;;;;56.20;11.43;;;;;;;;;;5056760;28;20478;-80
2021/10/24 00:21:28;;;;;;;56.13;13.70;;;;;;;;;;5061727;28;20461;-81
2021/10/24 00:23:57;;;;;;;57.13;14.67;;;;;;;;;;5052010;28;20499;-80
2021/10/24 00:26:24;;;;;;;59.13;15.20;;;;;;;;;;5065869;28;20465;-80
2021/10/24 00:28:52;;;;;;;55.87;12.43;;;;;;;;;;5038852;28;20466;-81
2021/10/24 00:31:19;;;;;;;57.43;13.00;;;;;;;;;;5064015;28;20885;-82
2021/10/24 00:33:47;;;;;;;55.30;12.50;;;;;;;;;;5050042;28;20479;-80
2021/10/24 00:36:14;;;;;;;55.47;11.20;;;;;;;;;;5049453;28;20499;-81
2021/10/24 00:38:41;;;;;;;58.40;14.67;;;;;;;;;;5038347;28;20463;-80
2021/10/24 00:41:08;;;;;;;55.47;12.70;;;;;;;;;;5060140;28;20547;-80
2021/10/24 00:43:35;;;;;;;58.13;14.27;;;;;;;;;;5058440;28;20563;-80
2021/10/24 00:46:03;;;;;;;58.40;13.00;;;;;;;;;;5054524;28;20494;-80
2021/10/24 00:48:31;;;;;;;57.20;12.57;;;;;;;;;;5049062;28;20874;-81
2021/10/24 00:50:58;;;;;;;60.20;14.10;;;;;;;;;;5047645;28;20468;-80
2021/10/24 00:53:25;;;;;;;57.73;13.50;;;;;;;;;;5056019;28;20481;-82
2021/10/24 00:55:52;;;;;;;60.40;14.93;;;;;;;;;;5056336;28;20504;-81
2021/10/24 00:58:20;;;;;;;56.73;13.30;;;;;;;;;;5043777;28;20453;-81
2021/10/24 01:00:47;;;;;;;55.73;14.47;;;;;;;;;;5049868;28;20467;-83
2021/10/24 01:03:16;;;;;;;56.17;13.33;;;;;;;;;;5052798;28;20480;-81
2021/10/24 01:05:43;;;;;;;54.87;11.77;;;;;;;;;;5058127;28;20458;-81
2021/10/24 01:08:10;;;;;;;58.03;13.57;;;;;;;;;;5057903;28;20841;-80
2021/10/24 01:10:38;;;;;;;57.03;13.63;;;;;;;;;;5039959;28;20456;-80
2021/10/24 01:13:05;;;;;;;55.97;14.67;;;;;;;;;;5052939;28;20479;-80
2021/10/24 01:15:33;;;;;;;58.20;12.63;;;;;;;;;;5056490;28;20481;-80
2021/10/24 01:18:00;;;;;;;60.87;14.93;;;;;;;;;;5056778;28;20462;-80
2021/10/24 01:20:29;;;;;;;56.60;13.63;;;;;;;;;;5057971;28;20458;-80
2021/10/24 01:22:58;;;;;;;56.37;13.20;;;;;;;;;;5061144;28;20475;-81
2021/10/24 01:25:25;;;;;;;54.50;13.67;;;;;;;;;;5060368;28;20459;-80
2021/10/24 01:27:53;;;;;;;54.70;11.93;;;;;;;;;;5056683;28;20466;-81
2021/10/24 01:30:20;;;;;;;56.33;14.17;;;;;;;;;;5045978;28;20810;-81
2021/10/24 01:32:48;;;;;;;57.53;14.80;;;;;;;;;;5057295;28;20471;-81
2021/10/24 01:35:15;;;;;;;58.67;13.13;;;;;;;;;;5043395;28;20491;-81
2021/10/24 01:37:43;;;;;;;56.20;12.63;;;;;;;;;;5042050;28;20480;-81
2021/10/24 01:40:13;;;;;;;56.80;12.53;;;;;;;;;;5045331;28;20458;-81
2021/10/24 01:42:51;;;;;;;56.20;12.43;;;;;;;;;;5041896;28;20479;-81
2021/10/24 01:45:19;;;;;;;57.10;13.07;;;;;;;;;;5044242;28;20451;-81
2021/10/24 01:47:46;;;;;;;57.20;13.60;;;;;;;;;;5042630;28;20507;-80
2021/10/24 01:50:13;;;;;;;57.60;12.67;;;;;;;;;;5047568;28;20462;-81
2021/10/24 01:52:42;;;;;;;55.73;12.43;;;;;;;;;;5047532;28;20468;-81
2021/10/24 01:55:10;;;;;;;57.13;13.83;;;;;;;;;;5041452;28;20575;-80
2021/10/24 01:57:38;;;;;;;57.10;13.30;;;;;;;;;;5041304;28;20453;-80
2021/10/24 02:00:06;;;;;;;56.50;13.80;;;;;;;;;;5040680;28;20444;-81
2021/10/24 02:02:33;;;;;;;55.83;12.23;;;;;;;;;;5043277;28;20502;-80
2021/10/24 02:05:01;;;;;;;56.70;11.23;;;;;;;;;;5042618;28;20440;-81
2021/10/24 02:07:28;;;;;;;56.40;12.30;;;;;;;;;;5042907;28;20456;-80
2021/10/24 02:09:55;;;;;;;56.07;14.30;;;;;;;;;;5047763;28;20540;-81
2021/10/24 02:12:24;;;;;;;55.83;12.80;;;;;;;;;;5044820;28;20472;-79
2021/10/24 02:14:53;;;;;;;64.50;13.70;;;;;;;;;;5040200;28;20500;-80
2021/10/24 02:17:20;;;;;;;56.10;13.37;;;;;;;;;;5046707;28;21157;-81
2021/10/24 02:19:47;;;;;;;54.63;12.83;;;;;;;;;;5046908;28;20837;-80
2021/10/24 02:22:14;;;;;;;54.10;12.53;;;;;;;;;;5044920;28;20476;-81
2021/10/24 02:24:42;;;;;;;53.50;11.03;;;;;;;;;;5038759;28;20456;-82
2021/10/24 02:27:09;;;;;;;55.70;13.73;;;;;;;;;;5043470;28;20455;-80
2021/10/24 02:29:37;;;;;;;57.00;12.43;;;;;;;;;;5058482;28;21013;-82
2021/10/24 02:32:05;;;;;;;54.53;12.50;;;;;;;;;;5068794;28;20885;-81
2021/10/24 02:34:33;;;;;;;56.20;12.87;;;;;;;;;;5053743;28;20505;-81
2021/10/24 02:37:00;;;;;;;55.43;13.53;;;;;;;;;;5063203;28;20483;-81
2021/10/24 02:39:27;;;;;;;55.20;10.60;;;;;;;;;;5058876;28;20538;-83
2021/10/24 02:41:54;;;;;;;57.43;13.43;;;;;;;;;;5047968;28;20453;-81
2021/10/24 02:44:22;;;;;;;55.27;12.53;;;;;;;;;;5041474;28;20455;-82
2021/10/24 02:46:49;;;;;;;54.37;11.97;;;;;;;;;;5065812;28;20516;-81
2021/10/24 02:49:18;;;;;;;54.07;12.23;;;;;;;;;;5047302;28;20551;-82
2021/10/24 02:51:45;;;;;;;58.33;12.57;;;;;;;;;;5056673;28;20456;-82
2021/10/24 02:54:12;;;;;;;56.70;13.10;;;;;;;;;;5040204;28;20464;-82
2021/10/24 02:56:39;;;;;;;57.20;12.03;;;;;;;;;;5065483;28;20486;-82
2021/10/24 02:59:07;;;;;;;55.97;12.03;;;;;;;;;;5067947;28;20454;-81
2021/10/24 03:01:34;;;;;;;56.10;11.10;;;;;;;;;;5060817;28;20886;-82
2021/10/24 03:04:02;;;;;;;54.70;12.00;;;;;;;;;;5054468;28;20511;-81
2021/10/24 03:06:30;;;;;;;54.53;11.47;;;;;;;;;;5057845;28;20456;-81
2021/10/24 03:08:57;;;;;;;54.33;11.10;;;;;;;;;;5062631;28;20478;-79
2021/10/24 03:11:25;;;;;;;56.60;13.00;;;;;;;;;;5061780;28;20977;-81
2021/10/24 03:13:52;;;;;;;56.00;12.63;;;;;;;;;;5059715;28;20475;-82
2021/10/24 03:16:19;;;;;;;55.60;12.77;;;;;;;;;;5060343;28;20528;-82
2021/10/24 03:18:46;;;;;;;56.13;12.73;;;;;;;;;;5058418;28;20463;-82
2021/10/24 03:21:13;;;;;;;54.50;12.50;;;;;;;;;;5048856;28;20467;-81
2021/10/24 03:23:42;;;;;;;54.83;11.70;;;;;;;;;;5058598;28;20480;-82
2021/10/24 03:26:09;;;;;;;54.53;12.97;;;;;;;;;;5051357;28;20462;-82
2021/10/24 03:28:36;;;;;;;56.33;12.83;;;;;;;;;;5059316;28;20806;-82
2021/10/24 03:31:03;;;;;;;55.37;10.30;;;;;;;;;;5054963;28;20537;-83
2021/10/24 03:33:30;;;;;;;57.53;13.00;;;;;;;;;;5047435;28;20493;-82
2021/10/24 03:35:57;;;;;;;62.80;12.67;;;;;;;;;;5049093;28;20493;-82
2021/10/24 03:38:25;;;;;;;57.03;12.83;;;;;;;;;;5043741;28;20955;-82
2021/10/24 03:40:53;;;;;;;56.87;13.97;;;;;;;;;;5058608;28;20550;-82
2021/10/24 03:43:20;;;;;;;55.33;11.30;;;;;;;;;;5048505;28;20487;-82
2021/10/24 03:45:47;;;;;;;54.77;11.70;;;;;;;;;;5040381;28;20464;-82
2021/10/24 03:48:15;;;;;;;56.67;13.40;;;;;;;;;;5049584;28;20552;-82
2021/10/24 03:50:42;;;;;;;53.77;12.10;;;;;;;;;;5044324;28;20470;-82
2021/10/24 03:53:09;;;;;;;57.80;12.57;;;;;;;;;;5059897;28;20479;-82
2021/10/24 03:55:36;;;;;;;56.40;12.53;;;;;;;;;;5055709;28;20491;-82
2021/10/24 03:58:04;;;;;;;54.30;12.87;;;;;;;;;;5048318;28;20459;-82
2021/10/24 04:00:32;;;;;;;58.23;13.17;;;;;;;;;;5046480;28;20542;-81
2021/10/24 04:03:01;;;;;;;57.10;12.17;;;;;;;;;;5054021;28;20484;-82
2021/10/24 04:05:29;;;;;;;58.10;12.73;;;;;;;;;;5059020;28;20463;-82
2021/10/24 04:07:57;;;;;;;60.30;13.17;;;;;;;;;;5052355;28;20451;-82
2021/10/24 04:10:25;;;;;;;60.50;12.67;;;;;;;;;;5061234;28;20447;-83
2021/10/24 04:12:53;;;;;;;56.53;13.57;;;;;;;;;;5062282;28;20480;-82
2021/10/24 04:15:22;;;;;;;56.63;12.70;;;;;;;;;;5047564;28;20454;-82
2021/10/24 04:17:50;;;;;;;59.90;13.57;;;;;;;;;;5060222;28;20463;-82
2021/10/24 04:20:18;;;;;;;60.33;13.40;;;;;;;;;;5046706;28;20461;-82
2021/10/24 04:22:46;;;;;;;56.43;12.40;;;;;;;;;;5056930;28;20537;-82
2021/10/24 04:25:13;;;;;;;59.43;13.00;;;;;;;;;;5058147;28;20509;-82
2021/10/24 04:27:40;;;;;;;55.97;12.60;;;;;;;;;;5047102;28;20458;-82
2021/10/24 04:30:09;;;;;;;58.97;12.67;;;;;;;;;;5037113;28;20456;-82
2021/10/24 04:32:38;;;;;;;57.60;12.87;;;;;;;;;;5048801;28;20480;-82
2021/10/24 04:35:06;;;;;;;59.07;13.73;;;;;;;;;;5036256;28;20542;-82
2021/10/24 04:37:33;;;;;;;59.77;12.90;;;;;;;;;;5062319;28;20493;-82
2021/10/24 04:40:00;;;;;;;57.13;13.40;;;;;;;;;;5037529;28;20467;-82
2021/10/24 04:42:27;;;;;;;55.20;12.73;;;;;;;;;;5044495;28;20477;-81
2021/10/24 04:44:55;;;;;;;58.10;13.27;;;;;;;;;;5047549;28;20483;-81
2021/10/24 04:47:23;;;;;;;57.63;13.80;;;;;;;;;;5072896;28;20543;-82
2021/10/24 04:49:51;;;;;;;44.80;7.77;;;;;;;;;;5061337;28;20467;-82
2021/10/24 04:52:18;;;;;;;49.03;7.33;;;;;;;;;;5056904;28;20478;-81
2021/10/24 04:54:45;;;;;;;58.80;11.73;;;;;;;;;;5062052;28;20463;-82
2021/10/24 04:57:13;;;;;;;55.60;12.80;;;;;;;;;;5062527;28;21004;-81
2021/10/24 04:59:40;;;;;;;60.33;17.27;;;;;;;;;;5046859;28;20525;-83
2021/10/24 05:04:40;;;;;;;58.30;11.23;;;;;;;;;;5091040;22;20575;-87
2021/10/24 05:07:09;;;;;;;57.70;10.30;;;;;;;;;;5055663;28;20457;-86
2021/10/24 05:09:36;;;;;;;53.83;10.63;;;;;;;;;;5043994;28;21096;-86
2021/10/24 05:12:03;;;;;;;54.13;8.40;;;;;;;;;;5059480;28;20455;-86
2021/10/24 05:14:30;;;;;;;51.87;7.80;;;;;;;;;;5071597;28;21002;-84
2021/10/24 05:16:57;;;;;;;51.30;7.63;;;;;;;;;;5063182;28;20490;-87
2021/10/24 05:19:24;;;;;;;52.57;7.30;;;;;;;;;;5063885;28;20480;-86
2021/10/24 05:21:51;;;;;;;47.50;6.73;;;;;;;;;;5046261;28;20545;-86
2021/10/24 05:24:20;;;;;;;50.67;7.33;;;;;;;;;;5044642;28;20479;-86
2021/10/24 05:26:47;;;;;;;47.57;5.90;;;;;;;;;;5059801;28;20474;-86
2021/10/24 05:29:14;;;;;;;50.40;5.73;;;;;;;;;;5053599;28;20468;-86
2021/10/24 05:31:41;;;;;;;51.07;7.83;;;;;;;;;;5042959;28;20464;-86
2021/10/24 05:34:08;;;;;;;50.40;6.80;;;;;;;;;;5044680;28;20543;-86
2021/10/24 05:36:35;;;;;;;49.37;6.57;;;;;;;;;;5043469;28;20493;-86
2021/10/24 05:39:03;;;;;;;53.67;7.80;;;;;;;;;;5063637;28;20459;-86
2021/10/24 05:41:32;;;;;;;50.80;7.47;;;;;;;;;;5060649;28;20467;-86
2021/10/24 05:43:59;;;;;;;49.80;7.30;;;;;;;;;;5049434;28;20497;-86
2021/10/24 05:46:26;;;;;;;49.77;8.00;;;;;;;;;;5063559;28;20444;-86
2021/10/24 05:48:54;;;;;;;54.97;8.50;;;;;;;;;;5062568;28;20475;-86
2021/10/24 05:51:21;;;;;;;50.73;8.30;;;;;;;;;;5058097;28;20542;-86
2021/10/24 05:53:48;;;;;;;50.80;8.47;;;;;;;;;;5060519;28;20474;-86
2021/10/24 05:56:15;;;;;;;51.60;8.53;;;;;;;;;;5063087;28;20493;-86
2021/10/24 05:58:43;;;;;;;55.83;8.60;;;;;;;;;;5060899;28;21024;-86
2021/10/24 06:01:11;;;;;;;51.23;7.93;;;;;;;;;;5062939;28;20515;-86
2021/10/24 06:03:38;;;;;;;52.57;9.40;;;;;;;;;;5058421;28;20495;-87
2021/10/24 06:06:05;;;;;;;50.60;8.60;;;;;;;;;;5049597;28;20464;-87
2021/10/24 06:08:32;;;;;;;51.77;9.33;;;;;;;;;;5066794;28;20550;-87
2021/10/24 06:11:13;;;;;;;52.77;9.50;;;;;;;;;;5057362;28;20527;-87
2021/10/24 06:13:40;;;;;;;53.60;8.57;;;;;;;;;;5067786;28;20481;-86
2021/10/24 06:16:08;;;;;;;52.43;10.70;;;;;;;;;;5065596;28;21014;-86
2021/10/24 06:18:36;;;;;;;50.30;8.60;;;;;;;;;;5065450;28;20460;-86
2021/10/24 06:21:03;;;;;;;54.03;9.47;;;;;;;;;;5067702;28;20455;-86
2021/10/24 06:23:30;;;;;;;53.63;9.70;;;;;;;;;;5067957;28;20468;-86
2021/10/24 06:25:57;;;;;;;52.17;9.30;;;;;;;;;;5062380;28;20454;-85
2021/10/24 06:28:24;;;;;;;54.00;10.50;;;;;;;;;;5062798;28;20458;-85
2021/10/24 06:30:52;;;;;;;55.60;10.00;;;;;;;;;;5065362;28;20457;-85
2021/10/24 06:33:20;;;;;;;51.73;9.00;;;;;;;;;;5061382;28;20477;-85
2021/10/24 06:35:47;;;;;;;51.53;9.23;;;;;;;;;;5061484;28;20951;-86
2021/10/24 06:38:14;;;;;;;50.53;8.83;;;;;;;;;;5057822;28;20498;-86
2021/10/24 06:40:41;;;;;;;50.90;7.90;;;;;;;;;;5057922;28;20451;-83
2021/10/24 06:43:08;;;;;;;53.43;8.73;;;;;;;;;;5059565;28;20459;-84
2021/10/24 06:45:35;;;;;;;54.03;9.77;;;;;;;;;;5057267;28;20854;-83
2021/10/24 06:48:04;;;;;;;52.53;8.40;;;;;;;;;;5055089;28;20460;-86
2021/10/24 06:50:32;;;;;;;50.60;7.23;;;;;;;;;;5058803;28;20512;-87
2021/10/24 06:52:59;;;;;;;53.53;8.43;;;;;;;;;;5057624;28;20463;-86
2021/10/24 06:55:26;;;;;;;52.57;9.30;;;;;;;;;;5060226;28;20959;-87
2021/10/24 06:57:56;;;;;;;51.33;8.03;;;;;;;;;;5061271;28;20482;-85
2021/10/24 07:00:23;;;;;;;55.00;10.23;;;;;;;;;;5056780;28;20451;-84
2021/10/24 07:02:51;;;;;;;52.67;8.70;;;;;;;;;;5060003;28;20489;-83
2021/10/24 07:05:18;;;;;;;52.47;8.60;;;;;;;;;;5051103;28;20467;-84
2021/10/24 07:07:46;;;;;;;51.50;8.50;;;;;;;;;;5057379;28;20459;-84
2021/10/24 07:10:14;;;;;;;50.90;9.60;;;;;;;;;;5058362;28;20528;-85
2021/10/24 07:12:42;;;;;;;50.80;8.80;;;;;;;;;;5062318;28;20493;-85
2021/10/24 07:15:10;;;;;;;53.67;9.80;;;;;;;;;;5060445;28;20491;-83
2021/10/24 07:17:37;;;;;;;51.23;9.70;;;;;;;;;;5062218;28;20482;-85
2021/10/24 07:20:05;;;;;;;52.93;9.67;;;;;;;;;;5062197;28;20488;-84
2021/10/24 07:22:32;;;;;;;50.27;7.20;;;;;;;;;;5058664;28;20575;-84
2021/10/24 07:25:00;;;;;;;49.33;8.67;;;;;;;;;;5069220;28;20462;-83
2021/10/24 07:27:27;;;;;;;50.60;8.57;;;;;;;;;;5083446;28;20464;-84
2021/10/24 07:29:54;;;;;;;50.90;8.83;;;;;;;;;;5073145;28;20464;-84
2021/10/24 07:32:23;;;;;;;50.67;8.80;;;;;;;;;;5068976;28;20487;-85
2021/10/24 07:34:50;;;;;;;50.00;8.80;;;;;;;;;;5076053;28;20495;-85
2021/10/24 07:37:17;;;;;;;48.53;8.23;;;;;;;;;;5076059;28;20470;-85
2021/10/24 07:39:44;;;;;;;52.17;9.70;;;;;;;;;;5075532;28;20464;-85
2021/10/24 07:42:13;;;;;;;50.97;9.17;;;;;;;;;;5073719;28;20459;-86
2021/10/24 07:44:40;;;;;;;50.73;8.47;;;;;;;;;;5070790;28;20476;-85
2021/10/24 07:47:07;;;;;;;50.30;8.13;;;;;;;;;;5059141;28;20462;-85
2021/10/24 07:49:34;;;;;;;49.77;8.00;;;;;;;;;;5058665;28;20547;-83
2021/10/24 07:52:01;;;;;;;50.30;8.73;;;;;;;;;;5056088;28;20485;-84
2021/10/24 07:54:29;;;;;;;51.03;8.70;;;;;;;;;;5059613;28;20482;-84
2021/10/24 07:56:56;;;;;;;49.03;8.83;;;;;;;;;;5058060;28;20575;-85
2021/10/24 07:59:24;;;;;;;49.00;7.60;;;;;;;;;;5056148;28;20463;-84
2021/10/24 08:01:51;;;;;;;46.13;6.83;;;;;;;;;;5048884;28;20447;-85
2021/10/24 08:04:19;;;;;;;47.40;6.50;;;;;;;;;;5056454;28;20490;-84
2021/10/24 08:06:47;;;;;;;48.77;7.73;;;;;;;;;;5059587;28;20452;-84
2021/10/24 08:09:14;;;;;;;52.27;7.53;;;;;;;;;;5058792;28;20463;-85
2021/10/24 08:11:43;;;;;;;51.60;8.90;;;;;;;;;;5058149;28;20452;-85
2021/10/24 08:14:10;;;;;;;53.37;8.20;;;;;;;;;;5060097;28;20534;-85
2021/10/24 08:16:39;;;;;;;49.60;8.40;;;;;;;;;;5052243;28;20941;-86
2021/10/24 08:19:06;;;;;;;50.70;11.10;;;;;;;;;;5056648;28;20456;-86
2021/10/24 08:21:33;;;;;;;52.80;9.70;;;;;;;;;;5061208;28;20477;-85
2021/10/24 08:24:00;;;;;;;49.87;8.80;;;;;;;;;;5047660;28;20472;-85
2021/10/24 08:26:29;;;;;;;48.03;7.43;;;;;;;;;;5059095;28;20452;-84
2021/10/24 08:28:57;;;;;;;51.00;8.60;;;;;;;;;;5058366;28;20463;-85
2021/10/24 08:31:27;;;;;;;47.50;7.53;;;;;;;;;;5051843;28;20826;-84
2021/10/24 08:33:55;;;;;;;49.53;8.60;;;;;;;;;;5056743;28;20476;-85
2021/10/24 08:36:23;;;;;;;48.20;6.70;;;;;;;;;;5051803;28;20540;-85
2021/10/24 08:38:51;;;;;;;50.30;7.57;;;;;;;;;;5055697;28;20495;-86
2021/10/24 08:41:22;;;;;;;49.50;7.57;;;;;;;;;;5059010;28;20452;-85
2021/10/24 08:43:49;;;;;;;47.00;7.23;;;;;;;;;;5059903;28;20495;-84
2021/10/24 08:46:17;;;;;;;47.23;6.60;;;;;;;;;;5050680;28;20510;-83
2021/10/24 08:48:44;;;;;;;48.23;7.40;;;;;;;;;;5047324;28;20454;-84
2021/10/24 08:51:13;;;;;;;49.70;7.17;;;;;;;;;;5056463;28;20457;-85
2021/10/24 08:53:43;;;;;;;50.10;6.67;;;;;;;;;;5059703;28;20528;-85
2021/10/24 08:56:14;;;;;;;46.17;6.73;;;;;;;;;;5046974;28;20850;-83
2021/10/24 08:58:41;;;;;;;48.63;5.50;;;;;;;;;;5061043;28;20476;-83
2021/10/24 09:01:08;;;;;;;47.63;6.10;;;;;;;;;;5059346;28;20451;-84
2021/10/24 09:03:36;;;;;;;46.70;5.77;;;;;;;;;;5060230;28;20484;-84
2021/10/24 09:06:05;;;;;;;47.97;6.70;;;;;;;;;;5054636;28;20540;-84
2021/10/24 09:08:37;;;;;;;50.27;6.63;;;;;;;;;;5056119;28;20465;-85
2021/10/24 09:11:04;;;;;;;47.57;6.03;;;;;;;;;;5059966;28;20483;-85
2021/10/24 09:13:32;;;;;;;49.10;6.57;;;;;;;;;;5055598;28;20590;-83
2021/10/24 09:16:00;;;;;;;54.40;7.00;;;;;;;;;;5052300;28;21097;-86
2021/10/24 09:18:31;;;;;;;46.83;5.10;;;;;;;;;;5066565;28;20545;-86
2021/10/24 09:20:58;;;;;;;49.97;6.10;;;;;;;;;;5061237;28;20449;-86
2021/10/24 09:23:32;;;;;;;46.53;4.67;;;;;;;;;;5060179;28;20475;-86
2021/10/24 09:26:01;;;;;;;47.00;4.83;;;;;;;;;;5062235;28;20453;-86
2021/10/24 09:28:28;;;;;;;47.93;4.17;;;;;;;;;;5064119;28;20462;-86
2021/10/24 09:31:00;;;;;;;46.00;4.80;;;;;;;;;;5067022;28;20475;-86
2021/10/24 09:33:27;;;;;;;45.47;5.60;;;;;;;;;;5067201;28;20609;-86
2021/10/24 09:35:54;;;;;;;43.03;4.20;;;;;;;;;;5058627;28;20459;-86
2021/10/24 09:38:22;;;;;;;46.37;4.37;;;;;;;;;;5057385;28;20486;-85
2021/10/24 09:40:51;;;;;;;45.07;4.60;;;;;;;;;;5059202;28;20459;-86
2021/10/24 09:43:20;;;;;;;47.73;4.63;;;;;;;;;;5053341;28;20479;-86
2021/10/24 09:45:49;;;;;;;44.57;3.77;;;;;;;;;;5055372;28;20506;-86
2021/10/24 09:48:17;;;;;;;48.00;4.67;;;;;;;;;;5055768;28;20942;-85
2021/10/24 09:50:47;;;;;;;44.03;3.20;;;;;;;;;;5060289;28;20529;-86
2021/10/24 09:53:15;;;;;;;50.70;7.23;;;;;;;;;;5060366;28;20502;-84
2021/10/24 09:55:43;;;;;;;49.13;4.60;;;;;;;;;;5060307;28;20489;-86
2021/10/24 09:58:11;;;;;;;48.83;5.20;;;;;;;;;;5050392;28;20867;-86
2021/10/24 10:00:39;;;;;;;49.17;5.37;;;;;;;;;;5060525;28;20814;-86
2021/10/24 10:03:07;;;;;;;62.63;46.10;;;;;;;;;;5054266;28;20498;-85
2021/10/24 10:05:35;;;;;;;46.83;4.80;;;;;;;;;;5040092;28;20562;-84
2021/10/24 10:08:03;;;;;;;49.27;5.37;;;;;;;;;;5059926;28;20469;-84
2021/10/24 10:10:31;;;;;;;47.60;5.30;;;;;;;;;;5060438;28;20493;-83
2021/10/24 10:13:00;;;;;;;50.13;7.20;;;;;;;;;;5061023;28;20548;-83
2021/10/24 10:15:31;;;;;;;50.67;9.90;;;;;;;;;;5055201;28;20509;-83
2021/10/24 10:18:02;;;;;;;51.10;7.70;;;;;;;;;;5047850;28;20482;-84
2021/10/24 10:20:30;;;;;;;49.40;4.40;;;;;;;;;;5050058;28;20810;-84
2021/10/24 10:23:15;;;;;;;51.47;6.30;;;;;;;;;;5041499;28;20475;-84
2021/10/24 10:25:43;;;;;;;45.47;2.70;;;;;;;;;;5041985;28;20455;-82
2021/10/24 10:28:13;;;;;;;41.87;2.80;;;;;;;;;;5060495;28;20454;-83
2021/10/24 10:30:41;;;;;;;50.60;4.77;;;;;;;;;;5057442;28;20539;-85
2021/10/24 10:33:23;;;;;;;44.30;2.90;;;;;;;;;;5048281;28;20560;-82
2021/10/24 10:35:54;;;;;;;44.37;3.00;;;;;;;;;;5061777;28;20538;-84
2021/10/24 10:38:31;;;;;;;45.77;2.50;;;;;;;;;;5061401;28;20493;-85
2021/10/24 10:40:58;;;;;;;44.37;2.97;;;;;;;;;;5061646;28;20481;-83
2021/10/24 10:43:25;;;;;;;44.30;2.23;;;;;;;;;;5052763;28;20472;-83
2021/10/24 10:45:55;;;;;;;43.77;2.47;;;;;;;;;;5041407;28;20460;-84
2021/10/24 10:48:24;;;;;;;44.87;2.60;;;;;;;;;;5051582;28;20483;-84
2021/10/24 10:50:56;;;;;;;31.20;2.20;;;;;;;;;;5060064;28;20474;-85
2021/10/24 10:53:42;;;;;;;29.97;2.20;;;;;;;;;;5047931;28;20487;-84
2021/10/24 10:56:20;;;;;;;30.20;2.57;;;;;;;;;;5045525;28;20446;-85
2021/10/24 10:58:48;;;;;;;34.40;2.40;;;;;;;;;;5058708;28;20541;-85
2021/10/24 11:01:20;;;;;;;27.83;2.00;;;;;;;;;;5060320;28;20542;-84
2021/10/24 11:03:49;;;;;;;26.63;2.20;;;;;;;;;;5072796;22;20488;-80
2021/10/24 11:06:31;;;;;;;24.50;1.63;;;;;;;;;;5046998;28;20452;-81
2021/10/24 11:09:00;;;;;;;24.60;1.80;;;;;;;;;;5055060;28;20883;-81
2021/10/24 11:11:51;;;;;;;22.87;1.50;;;;;;;;;;5038944;28;20456;-81
2021/10/24 11:14:45;;;;;;;24.43;2.63;;;26.00;77.10;;;;;;5039168;28;20472;-82
2021/10/24 11:17:34;;;;;;;23.97;1.80;;;26.40;76.00;;;;;;5039287;28;20532;-82
2021/10/24 11:20:17;;;;;;;23.43;1.90;;;26.40;75.10;;;;;;5048718;28;20593;-81
2021/10/24 11:22:59;;;;;;;24.30;1.93;;;26.40;71.60;;;;;;5046090;28;20437;-81
2021/10/24 11:25:36;;;;;;;22.00;1.47;;;25.80;67.10;;;;;;5039242;28;20972;-81
2021/10/24 11:28:12;;;;;;;23.57;1.73;;;25.90;66.60;;;;;;5042229;28;20447;-81
2021/10/24 11:30:39;;;;;;;20.07;1.50;;;26.70;68.60;;;;;;5046656;28;20523;-83
2021/10/24 11:33:07;;;;;;;21.53;1.83;;;27.30;69.20;;;;;;5040290;28;20461;-81
2021/10/24 11:35:39;;;;;;;19.40;1.63;;;28.30;68.80;;;;;;5039134;28;20996;-81
2021/10/24 11:38:13;;;;;;;20.30;1.90;;;29.10;66.00;;;;;;5041510;28;20479;-82
2021/10/24 11:40:44;;;;;;;19.23;1.73;;;29.00;62.90;;;;;;5038568;28;20449;-82
2021/10/24 11:43:14;;;;;;;18.60;1.93;;;28.90;59.40;;;;;;5043270;28;20475;-82
2021/10/24 11:45:43;;;;;;;18.93;2.00;;;29.90;58.50;;;;;;5058991;28;20496;-82
2021/10/24 11:48:15;;;;;;;19.60;2.00;;;30.10;56.00;;;;;;5052756;28;20456;-82
2021/10/24 11:50:57;;;;;;;18.47;1.93;;;29.80;56.00;;;;;;5041164;28;21147;-82
2021/10/24 11:53:28;;;;;;;17.60;1.50;;;31.00;58.20;;;;;;5038288;28;20459;-81
2021/10/24 11:56:00;;;;;;;17.70;1.90;;;31.00;57.10;;;;;;5045335;28;20479;-83
2021/10/24 11:58:45;;;;;;;18.07;1.63;;;31.80;57.20;;;;;;5051240;28;20475;-82
2021/10/24 12:01:14;;;;;;;18.67;1.87;;;32.40;54.60;;;;;;5044834;28;20440;-81
2021/10/24 12:03:42;;;;;;;19.20;1.60;;;31.30;52.20;;;;;;5059040;28;20460;-82
2021/10/24 12:06:10;;;;;;;20.03;1.90;;;30.20;49.30;;;;;;5055585;28;20489;-81
2021/10/24 12:08:51;;;;;;;19.73;1.70;;;29.20;49.50;;;;;;5046430;28;20458;-81
2021/10/24 12:11:43;;;;;;;18.77;1.80;;;28.90;50.40;;;;;;5042515;28;20467;-80
2021/10/24 12:14:11;;;;;;;18.40;1.30;;;28.80;50.40;;;;;;5043165;28;20464;-82
2021/10/24 12:16:41;;;;;;;18.30;1.70;;;29.60;53.30;;;;;;5038738;28;20533;-82
2021/10/24 12:19:26;;;;;;;17.60;1.70;;;30.70;55.60;;;;;;5047811;28;20579;-83
2021/10/24 12:21:55;;;;;;;17.70;1.63;;;30.60;51.30;;;;;;5038070;28;20462;-83
2021/10/24 12:24:24;;;;;;;20.03;1.67;;;30.80;51.90;;;;;;5050307;28;20479;-82
2021/10/24 12:27:08;;;;;;;17.30;1.50;;;31.70;52.40;;;;;;5041607;28;20471;-82
2021/10/24 12:29:35;;;;;;;18.23;1.40;;;30.30;58.60;;;;;;5049599;28;20464;-83
2021/10/24 12:32:11;;;;;;;20.37;1.60;;;29.50;51.40;;;;;;5039099;28;20544;-83
2021/10/24 12:34:38;;;;;;;21.83;1.80;;;28.00;53.20;;;;;;5048805;28;20483;-83
2021/10/24 12:37:16;;;;;;;23.77;2.10;;;26.10;56.30;;;;;;5041589;28;20456;-82
2021/10/24 12:39:43;;;;;;;22.30;1.73;;;24.30;59.90;;;;;;5045115;28;20829;-83
2021/10/24 12:42:18;;;;;;;23.03;1.83;;;23.40;62.40;;;;;;5052063;28;20648;-84
2021/10/24 12:44:45;;;;;;;26.77;1.97;;;22.80;64.00;;;;;;5044267;28;20483;-82
2021/10/24 12:47:15;;;;;;;25.33;1.60;;;22.90;64.80;;;;;;5049380;28;20530;-83
2021/10/24 12:49:53;;;;;;;26.17;2.10;;;24.20;65.40;;;;;;5044130;28;20857;-83
2021/10/24 12:52:20;;;;;;;24.47;1.60;;;25.30;65.20;;;;;;5046157;28;20547;-83
2021/10/24 12:54:48;;;;;;;23.80;1.80;;;26.00;64.60;;;;;;5050231;28;20475;-83
2021/10/24 12:57:16;;;;;;;24.50;2.03;;;25.70;65.40;;;;;;5045391;28;20536;-83
2021/10/24 12:59:43;;;;;;;27.60;2.03;;;25.70;65.70;;;;;;5048603;28;21029;-84
2021/10/24 13:02:10;;;;;;;27.07;2.53;;;25.80;65.40;;;;;;5043962;28;20465;-82
2021/10/24 13:04:37;;;;;;;26.77;1.60;;;25.40;64.60;;;;;;5043443;28;20577;-80
2021/10/24 13:07:05;;;;;;;25.10;1.93;;;25.00;61.90;;;;;;5039726;28;20835;-80
2021/10/24 13:09:32;;;;;;;25.30;2.00;;;25.20;65.40;;;;;;5050146;28;20458;-79
2021/10/24 13:11:59;;;;;;;26.47;2.13;;;25.50;59.80;;;;;;5042790;28;20491;-78
2021/10/24 13:14:27;;;;;;;24.27;2.20;;;25.50;66.90;;;;;;5032675;28;20485;-79
2021/10/24 13:16:54;;;;;;;23.60;1.70;;;25.60;64.00;;;;;;5033441;28;20543;-79
2021/10/24 13:19:21;;;;;;;26.27;1.80;;;25.50;57.70;;;;;;5046591;28;20519;-78
2021/10/24 13:24:34;;;;;;;29.70;2.97;;;24.50;63.90;;;;;;5044892;28;20874;-79
2021/10/24 13:27:01;;;;;;;36.40;6.30;;;24.40;66.60;;;;;;5034826;28;20456;-79
2021/10/24 13:29:29;;;;;;;39.37;6.20;;;24.40;66.00;;;;;;5045714;28;20495;-79
2021/10/24 13:31:56;;;;;;;27.20;2.00;;;24.10;68.30;;;;;;5033713;28;20520;-78
2021/10/24 13:34:23;;;;;;;26.73;2.03;;;23.80;63.60;;;;;;5053711;28;20487;-80
2021/10/24 13:36:50;;;;;;;27.40;1.90;;;23.90;64.60;;;;;;5057645;28;20475;-81
2021/10/24 13:39:16;;;;;;;27.27;1.67;;;24.10;58.00;;;;;;5038532;28;20492;-82
2021/10/24 13:41:43;;;;;;;25.17;1.90;;;24.60;62.30;;;;;;5036514;28;20540;-82
2021/10/24 13:44:10;;;;;;;24.40;1.80;;;25.00;64.50;;;;;;5037074;28;20481;-82
2021/10/24 13:46:38;;;;;;;25.33;1.70;;;25.20;63.00;;;;;;5049398;28;20977;-82
2021/10/24 13:49:05;;;;;;;24.00;1.30;;;24.80;65.30;;;;;;5039460;28;20552;-80
2021/10/24 13:51:32;;;;;;;26.60;1.63;;;24.10;66.10;;;;;;5037142;28;20495;-79
2021/10/24 13:53:59;;;;;;;26.73;1.80;;;22.60;59.60;;;;;;5036425;28;20485;-80
2021/10/24 13:56:26;;;;;;;30.07;1.80;;;21.20;65.70;;;;;;5037584;28;20556;-79
2021/10/24 13:58:53;;;;;;;28.03;2.03;;;20.30;65.90;;;;;;5036335;28;20488;-82
2021/10/24 14:01:21;;;;;;;31.10;2.10;;;19.40;66.90;;;;;;5035367;28;20468;-81
2021/10/24 14:03:55;;;;;;;31.00;2.10;;;19.00;73.00;;;;;;5036587;28;20486;-82
2021/10/24 14:06:22;;;;;;;30.73;1.90;;;18.30;77.90;;;;;;5036565;28;20982;-81
2021/10/24 14:08:50;;;;;;;26.50;1.70;;;17.80;82.30;;;;;;5036461;28;20458;-81
2021/10/24 14:11:18;;;;;;;25.73;1.77;;;17.20;92.50;;;;;;5037239;28;20520;-82
2021/10/24 14:13:45;;;;;;;23.33;1.83;;;16.70;98.90;;;;;;5043055;28;20480;-82